Time;durP1;ratioP1;P1;durP2;ratioP2;P2;SDS_P1;SDS_P2;PMS_P1;PMS_P2;Temp;Humidity;BMP_temperature;BMP_pressure;BME280_temperature;BME280_humidity;BME280_pressure;Samples;Min_cycle;Max_cycle;Signal;HPM_P1;HPM_P2
2021/08/09 00:02:16;;;;;;;;;;;;;;;28.42;43.46;100840.56;5098796;28;743;-38
2021/08/09 00:04:41;;;;;;;;;;;;;;;28.39;43.36;100839.09;5098589;28;974;-43
2021/08/09 00:07:07;;;;;;;;;;;;;;;28.46;43.33;100848.09;5098960;28;759;-46
2021/08/09 00:09:33;;;;;;;;;;;;;;;28.45;43.37;100848.28;5098766;28;811;-40
2021/08/09 00:11:58;;;;;;;;;;;;;;;28.40;43.64;100853.44;5098367;28;1913;-38
2021/08/09 00:14:23;;;;;;;;;;;;;;;28.50;43.45;100853.97;5098575;28;795;-42
2021/08/09 00:16:48;;;;;;;;;;;;;;;28.39;43.65;100852.63;5098845;28;829;-38
2021/08/09 00:19:14;;;;;;;;;;;;;;;28.42;43.54;100849.53;5098155;28;878;-40
2021/08/09 00:21:39;;;;;;;;;;;;;;;28.44;43.33;100858.28;5098250;28;958;-39
2021/08/09 00:24:04;;;;;;;;;;;;;;;28.45;43.44;100854.56;5097949;28;1107;-42
2021/08/09 00:26:30;;;;;;;;;;;;;;;28.54;43.53;100849.03;5077652;28;785;-44
2021/08/09 00:28:55;;;;;;;;;;;;;;;28.53;43.63;100855.47;5078712;28;803;-39
2021/08/09 00:31:21;;;;;;;;;;;;;;;28.44;43.95;100849.34;5078418;28;1910;-43
2021/08/09 00:33:46;;;;;;;;;;;;;;;28.53;43.80;100864.41;5077678;28;797;-44
2021/08/09 00:36:11;;;;;;;;;;;;;;;28.50;43.46;100853.13;5093117;28;1002;-46
2021/08/09 00:38:37;;;;;;;;;;;;;;;28.50;43.53;100855.84;5097472;28;740;-39
2021/08/09 00:41:02;;;;;;;;;;;;;;;28.42;44.06;100851.38;5097974;28;818;-44
2021/08/09 00:43:27;;;;;;;;;;;;;;;28.56;43.96;100855.09;5098362;28;775;-41
2021/08/09 00:45:52;;;;;;;;;;;;;;;28.53;43.77;100859.00;5098247;28;930;-41
2021/08/09 00:48:18;;;;;;;;;;;;;;;28.51;43.80;100852.94;5097653;28;767;-42
2021/08/09 00:50:43;;;;;;;;;;;;;;;28.52;43.87;100845.66;5097694;28;1969;-41
2021/08/09 00:53:09;;;;;;;;;;;;;;;28.53;43.63;100844.66;5079667;28;741;-41
2021/08/09 00:55:34;;;;;;;;;;;;;;;28.53;43.91;100847.38;5097699;28;1063;-49
2021/08/09 00:57:59;;;;;;;;;;;;;;;28.45;43.97;100849.13;5079348;28;1102;-48
2021/08/09 01:00:25;;;;;;;;;;;;;;;28.50;43.99;100843.16;5097597;28;897;-42
2021/08/09 01:02:50;;;;;;;;;;;;;;;28.67;43.44;100842.91;5097538;28;756;-39
2021/08/09 01:05:15;;;;;;;;;;;;;;;28.55;43.88;100834.47;5097303;28;974;-41
2021/08/09 01:08:06;;;;;;;;;;;;;;;28.26;44.13;100836.19;5097516;28;780;-38
2021/08/09 01:10:37;;;;;;;;;;;;;;;27.89;42.63;100841.50;5066040;28;1910;-36
2021/08/09 01:13:08;;;;;;;;;;;;;;;27.61;42.10;100835.66;5097613;28;798;-51
2021/08/09 01:15:37;;;;;;;;;;;;;;;27.43;42.97;100830.63;5097469;28;846;-36
2021/08/09 01:18:03;;;;;;;;;;;;;;;27.68;43.96;100829.53;5097196;28;732;-40
2021/08/09 01:20:47;;;;;;;;;;;;;;;28.03;43.99;100823.63;5096961;28;1002;-45
2021/08/09 01:23:31;;;;;;;;;;;;;;;28.16;44.11;100821.06;5078708;28;908;-48
2021/08/09 01:25:57;;;;;;;;;;;;;;;28.19;44.27;100820.72;5097162;28;1150;-38
2021/08/09 01:28:23;;;;;;;;;;;;;;;28.24;43.95;100812.84;5097304;28;834;-47
2021/08/09 01:30:49;;;;;;;;;;;;;;;28.29;44.00;100815.00;5078550;28;1968;-41
2021/08/09 01:33:14;;;;;;;;;;;;;;;28.31;43.91;100822.94;5078563;28;1313;-50
2021/08/09 01:35:39;;;;;;;;;;;;;;;28.32;43.92;100825.44;5078616;28;947;-39
2021/08/09 01:38:04;;;;;;;;;;;;;;;28.36;43.90;100826.75;5078970;28;506;-52
2021/08/09 01:40:30;;;;;;;;;;;;;;;28.34;43.90;100825.28;5078780;28;833;-41
2021/08/09 01:42:56;;;;;;;;;;;;;;;28.41;43.58;100819.94;5078937;28;839;-47
2021/08/09 01:45:21;;;;;;;;;;;;;;;28.38;43.64;100815.75;5096922;28;854;-48
2021/08/09 01:47:46;;;;;;;;;;;;;;;28.40;43.85;100816.41;5096637;28;1023;-49
2021/08/09 01:50:12;;;;;;;;;;;;;;;28.39;43.65;100817.44;5096410;28;1906;-50
2021/08/09 01:52:38;;;;;;;;;;;;;;;28.38;44.05;100812.22;5097027;28;763;-51
2021/08/09 01:55:03;;;;;;;;;;;;;;;28.51;43.78;100815.06;5096553;28;1045;-50
2021/08/09 01:57:29;;;;;;;;;;;;;;;28.43;43.82;100812.47;5096610;28;763;-41
2021/08/09 01:59:54;;;;;;;;;;;;;;;28.46;43.65;100821.03;5096780;28;794;-51
2021/08/09 02:02:45;;;;;;;;;;;;;;;28.46;43.52;100821.03;5096474;28;890;-49
2021/08/09 02:05:14;;;;;;;;;;;;;;;28.52;43.47;100810.50;5092317;28;1146;-48
2021/08/09 02:07:41;;;;;;;;;;;;;;;28.53;43.71;100807.59;5096846;28;914;-42
2021/08/09 02:10:07;;;;;;;;;;;;;;;28.61;43.36;100806.66;5095990;28;1973;-42
2021/08/09 02:12:34;;;;;;;;;;;;;;;28.64;43.48;100802.72;5078263;28;842;-49
2021/08/09 02:15:00;;;;;;;;;;;;;;;28.50;43.62;100812.53;5078679;28;808;-49
2021/08/09 02:17:55;;;;;;;;;;;;;;;28.59;43.52;100823.06;5078659;28;791;-50
2021/08/09 02:20:31;;;;;;;;;;;;;;;28.60;43.38;100807.66;5078273;28;1170;-40
2021/08/09 02:22:57;;;;;;;;;;;;;;;28.54;43.67;100811.16;5096410;28;767;-38
2021/08/09 02:25:24;;;;;;;;;;;;;;;28.61;43.58;100809.34;5084227;28;1135;-46
2021/08/09 02:27:49;;;;;;;;;;;;;;;28.60;43.75;100808.50;5076471;28;843;-42
2021/08/09 02:30:18;;;;;;;;;;;;;;;28.57;43.62;100805.34;5076154;28;1902;-46
2021/08/09 02:32:44;;;;;;;;;;;;;;;28.59;43.38;100801.41;5058420;28;796;-44
2021/08/09 02:35:09;;;;;;;;;;;;;;;28.56;43.74;100801.78;5064236;28;972;-42
2021/08/09 02:37:35;;;;;;;;;;;;;;;28.60;43.54;100808.50;5061472;28;763;-45
2021/08/09 02:40:00;;;;;;;;;;;;;;;28.63;43.72;100804.56;5077896;28;800;-48
2021/08/09 02:42:25;;;;;;;;;;;;;;;28.58;43.58;100815.13;5096444;28;768;-46
2021/08/09 02:44:50;;;;;;;;;;;;;;;28.62;43.75;100811.03;5078380;28;854;-47
2021/08/09 02:47:16;;;;;;;;;;;;;;;28.63;43.48;100822.69;5096031;28;875;-42
2021/08/09 02:49:46;;;;;;;;;;;;;;;28.64;43.52;100810.84;5095752;28;926;-47
2021/08/09 02:52:11;;;;;;;;;;;;;;;28.58;43.70;100818.69;5078872;28;768;-43
2021/08/09 02:54:36;;;;;;;;;;;;;;;28.55;43.84;100808.25;5077753;28;1137;-45
2021/08/09 02:57:02;;;;;;;;;;;;;;;28.65;43.68;100813.34;5096478;28;791;-42
2021/08/09 02:59:27;;;;;;;;;;;;;;;28.60;43.79;100819.34;5096244;28;835;-43
2021/08/09 03:01:52;;;;;;;;;;;;;;;28.59;43.77;100816.81;5098063;28;751;-45
2021/08/09 03:04:18;;;;;;;;;;;;;;;28.55;43.88;100818.22;5100254;28;809;-45
2021/08/09 03:06:44;;;;;;;;;;;;;;;28.58;43.95;100824.09;5099477;28;954;-47
2021/08/09 03:09:09;;;;;;;;;;;;;;;28.59;43.84;100825.75;5082121;28;770;-44
2021/08/09 03:11:34;;;;;;;;;;;;;;;28.67;43.76;100829.38;5081711;28;1965;-45
2021/08/09 03:13:59;;;;;;;;;;;;;;;28.44;42.96;100827.69;5081773;28;685;-47
2021/08/09 03:16:25;;;;;;;;;;;;;;;28.10;42.89;100827.22;5099784;28;899;-40
2021/08/09 03:18:50;;;;;;;;;;;;;;;27.95;42.13;100822.69;5081919;28;744;-42
2021/08/09 03:21:15;;;;;;;;;;;;;;;27.24;41.84;100813.06;5099133;28;994;-40
2021/08/09 03:23:41;;;;;;;;;;;;;;;27.32;42.63;100829.22;5099778;28;837;-40
2021/08/09 03:26:06;;;;;;;;;;;;;;;27.21;42.54;100825.06;5081871;28;1143;-40
2021/08/09 03:28:32;;;;;;;;;;;;;;;27.22;42.58;100839.41;5079060;28;829;-40
2021/08/09 03:30:58;;;;;;;;;;;;;;;27.26;43.08;100833.47;5078934;28;1898;-40
2021/08/09 03:33:26;;;;;;;;;;;;;;;26.59;43.71;100822.25;5079311;28;839;-39
2021/08/09 03:35:51;;;;;;;;;;;;;;;26.52;44.27;100830.25;5089811;28;1010;-40
2021/08/09 03:38:16;;;;;;;;;;;;;;;26.38;44.49;100837.22;5099237;28;767;-43
2021/08/09 03:40:42;;;;;;;;;;;;;;;26.56;42.52;100835.28;5099241;28;791;-41
2021/08/09 03:43:10;;;;;;;;;;;;;;;26.52;43.09;100835.66;5098971;28;812;-40
2021/08/09 03:45:35;;;;;;;;;;;;;;;26.34;42.38;100826.97;5099401;28;712;-40
2021/08/09 03:48:01;;;;;;;;;;;;;;;26.29;43.00;100835.56;5099636;28;728;-40
2021/08/09 03:50:26;;;;;;;;;;;;;;;26.29;42.77;100840.94;5098811;28;1953;-39
2021/08/09 03:52:52;;;;;;;;;;;;;;;26.27;42.08;100840.28;5098572;28;748;-41
2021/08/09 03:55:17;;;;;;;;;;;;;;;26.66;41.95;100835.88;5098921;28;1137;-41
2021/08/09 03:57:43;;;;;;;;;;;;;;;27.22;41.58;100840.25;5099297;28;823;-43
2021/08/09 04:00:08;;;;;;;;;;;;;;;27.52;41.40;100847.59;5098851;28;801;-35
2021/08/09 04:02:34;;;;;;;;;;;;;;;27.72;40.67;100852.50;5098734;28;740;-44
2021/08/09 04:04:59;;;;;;;;;;;;;;;27.73;41.72;100855.00;5093486;28;1014;-52
2021/08/09 04:07:27;;;;;;;;;;;;;;;27.64;42.12;100858.81;5078847;28;787;-53
2021/08/09 04:09:52;;;;;;;;;;;;;;;27.52;42.77;100861.09;5078238;28;1973;-51
2021/08/09 04:12:21;;;;;;;;;;;;;;;27.67;42.43;100854.88;5077277;28;783;-48
2021/08/09 04:14:46;;;;;;;;;;;;;;;27.67;42.56;100852.19;5060767;28;748;-47
2021/08/09 04:17:11;;;;;;;;;;;;;;;27.63;42.70;100849.00;5078519;28;756;-39
2021/08/09 04:19:36;;;;;;;;;;;;;;;27.95;41.93;100848.88;5079581;28;916;-41
2021/08/09 04:22:02;;;;;;;;;;;;;;;28.00;41.86;100854.56;5098218;28;792;-47
2021/08/09 04:24:27;;;;;;;;;;;;;;;28.05;41.99;100854.84;5098472;28;1155;-48
2021/08/09 04:26:52;;;;;;;;;;;;;;;28.10;41.79;100851.56;5099001;28;799;-41
2021/08/09 04:29:18;;;;;;;;;;;;;;;28.02;42.13;100855.22;5098282;28;835;-48
2021/08/09 04:31:43;;;;;;;;;;;;;;;28.08;42.23;100849.06;5097935;28;1906;-41
2021/08/09 04:34:08;;;;;;;;;;;;;;;28.06;42.42;100856.50;5098421;28;920;-43
2021/08/09 04:36:34;;;;;;;;;;;;;;;28.11;42.57;100854.09;5097992;28;958;-48
2021/08/09 04:38:59;;;;;;;;;;;;;;;28.22;42.58;100851.94;5098144;28;748;-41
2021/08/09 04:41:24;;;;;;;;;;;;;;;28.29;42.48;100852.03;5098297;28;882;-40
2021/08/09 04:43:49;;;;;;;;;;;;;;;28.24;42.88;100849.91;5097909;28;796;-51
2021/08/09 04:46:15;;;;;;;;;;;;;;;28.35;42.81;100848.59;5098081;28;755;-40
2021/08/09 04:48:40;;;;;;;;;;;;;;;28.38;42.97;100847.41;5098209;28;902;-43
2021/08/09 04:51:05;;;;;;;;;;;;;;;28.45;42.76;100851.84;5097613;28;1905;-42
2021/08/09 04:53:30;;;;;;;;;;;;;;;28.48;43.04;100845.19;5097692;28;783;-39
2021/08/09 04:55:56;;;;;;;;;;;;;;;28.45;43.18;100857.25;5097987;28;1253;-48
2021/08/09 04:58:21;;;;;;;;;;;;;;;28.57;42.70;100854.06;5097662;28;898;-40
2021/08/09 05:00:46;;;;;;;;;;;;;;;28.62;42.66;100853.47;5098298;28;779;-42
2021/08/09 05:03:12;;;;;;;;;;;;;;;28.68;42.88;100861.69;5098034;28;775;-48
2021/08/09 05:05:37;;;;;;;;;;;;;;;28.76;42.42;100868.00;5097413;28;1009;-41
2021/08/09 05:08:02;;;;;;;;;;;;;;;28.83;41.94;100866.19;5097491;28;767;-40
2021/08/09 05:10:28;;;;;;;;;;;;;;;28.89;41.96;100873.56;5097851;28;1910;-44
2021/08/09 05:12:53;;;;;;;;;;;;;;;28.94;42.06;100873.00;5097510;28;814;-41
2021/08/09 05:15:22;;;;;;;;;;;;;;;28.95;41.91;100863.81;5095014;28;1091;-48
2021/08/09 05:17:47;;;;;;;;;;;;;;;28.99;42.03;100865.16;5097641;28;779;-49
2021/08/09 05:20:12;;;;;;;;;;;;;;;29.03;41.86;100866.44;5097150;28;935;-46
2021/08/09 05:22:38;;;;;;;;;;;;;;;28.99;42.15;100870.56;5096717;28;767;-42
2021/08/09 05:25:04;;;;;;;;;;;;;;;29.02;42.06;100872.91;5087668;28;1178;-43
2021/08/09 05:27:29;;;;;;;;;;;;;;;29.02;41.91;100874.75;5076831;28;795;-41
2021/08/09 05:29:55;;;;;;;;;;;;;;;29.09;41.40;100876.50;5077016;28;1902;-43
2021/08/09 05:32:20;;;;;;;;;;;;;;;29.02;41.40;100877.47;5076954;28;878;-39
2021/08/09 05:34:48;;;;;;;;;;;;;;;29.05;41.54;100871.66;5079397;28;1014;-42
2021/08/09 05:37:13;;;;;;;;;;;;;;;28.99;41.45;100883.28;5096952;28;811;-39
2021/08/09 05:39:39;;;;;;;;;;;;;;;28.99;41.48;100881.41;5097170;28;753;-42
2021/08/09 05:42:05;;;;;;;;;;;;;;;28.87;41.65;100886.47;5096905;28;822;-42
2021/08/09 05:44:30;;;;;;;;;;;;;;;28.98;41.46;100887.03;5096670;28;799;-47
2021/08/09 05:46:55;;;;;;;;;;;;;;;28.94;41.77;100884.66;5097052;28;814;-46
2021/08/09 05:49:20;;;;;;;;;;;;;;;28.89;41.92;100892.53;5096814;28;819;-44
2021/08/09 05:51:46;;;;;;;;;;;;;;;28.94;41.72;100883.81;5096023;28;1906;-41
2021/08/09 05:54:11;;;;;;;;;;;;;;;28.92;41.77;100878.59;5096711;28;1052;-42
2021/08/09 05:56:36;;;;;;;;;;;;;;;29.01;41.53;100883.94;5096761;28;1391;-41
2021/08/09 05:59:02;;;;;;;;;;;;;;;29.02;41.61;100882.88;5096591;28;808;-45
2021/08/09 06:01:27;;;;;;;;;;;;;;;29.14;41.57;100875.94;5096259;28;825;-41
2021/08/09 06:03:52;;;;;;;;;;;;;;;29.03;41.74;100877.28;5096390;28;821;-42
2021/08/09 06:06:18;;;;;;;;;;;;;;;29.00;41.77;100884.94;5095763;28;868;-43
2021/08/09 06:08:44;;;;;;;;;;;;;;;29.04;41.51;100876.25;5096536;28;720;-45
2021/08/09 06:11:09;;;;;;;;;;;;;;;28.99;41.93;100878.69;5096625;28;1977;-45
2021/08/09 06:13:34;;;;;;;;;;;;;;;29.07;41.49;100872.31;5096031;28;740;-47
2021/08/09 06:16:00;;;;;;;;;;;;;;;29.07;41.37;100875.03;5096741;28;808;-37
2021/08/09 06:18:25;;;;;;;;;;;;;;;29.11;41.36;100870.91;5096690;28;748;-49
2021/08/09 06:20:50;;;;;;;;;;;;;;;29.09;41.43;100872.97;5096087;28;992;-40
2021/08/09 06:23:15;;;;;;;;;;;;;;;29.10;41.76;100880.03;5096350;28;748;-43
2021/08/09 06:25:42;;;;;;;;;;;;;;;29.14;41.59;100875.09;5096369;28;1230;-41
2021/08/09 06:28:09;;;;;;;;;;;;;;;29.15;41.51;100874.03;5096294;28;816;-48
2021/08/09 06:30:34;;;;;;;;;;;;;;;28.94;39.94;100876.53;5095856;28;1961;-43
2021/08/09 06:32:59;;;;;;;;;;;;;;;29.12;40.35;100874.44;5096490;28;832;-38
2021/08/09 06:35:24;;;;;;;;;;;;;;;29.12;40.94;100879.84;5095861;28;1005;-38
2021/08/09 06:37:50;;;;;;;;;;;;;;;29.15;41.11;100882.16;5100590;28;841;-42
2021/08/09 06:40:15;;;;;;;;;;;;;;;29.17;41.19;100880.13;5100352;28;831;-44
2021/08/09 06:42:40;;;;;;;;;;;;;;;29.25;41.23;100869.16;5099947;28;740;-40
2021/08/09 06:45:06;;;;;;;;;;;;;;;29.24;41.24;100875.59;5100319;28;776;-40
2021/08/09 06:47:31;;;;;;;;;;;;;;;29.41;40.73;100870.72;5100805;28;760;-42
2021/08/09 06:49:56;;;;;;;;;;;;;;;29.26;41.24;100870.00;5099485;28;1977;-44
2021/08/09 06:52:22;;;;;;;;;;;;;;;29.28;41.35;100870.63;5100332;28;763;-43
2021/08/09 06:54:47;;;;;;;;;;;;;;;29.36;41.16;100865.09;5099739;28;1150;-39
2021/08/09 06:57:13;;;;;;;;;;;;;;;29.32;41.26;100870.06;5100001;28;802;-42
2021/08/09 06:59:38;;;;;;;;;;;;;;;29.28;41.34;100866.03;5099820;28;847;-42
2021/08/09 07:02:04;;;;;;;;;;;;;;;29.40;41.29;100862.78;5100510;28;763;-44
2021/08/09 07:04:29;;;;;;;;;;;;;;;29.50;40.93;100868.72;5099287;28;966;-37
2021/08/09 07:06:54;;;;;;;;;;;;;;;29.55;40.49;100866.25;5099743;28;736;-41
2021/08/09 07:09:21;;;;;;;;;;;;;;;29.53;40.72;100862.09;5081551;28;1248;-42
2021/08/09 07:11:46;;;;;;;;;;;;;;;29.64;40.55;100871.56;5099406;28;1910;-51
2021/08/09 07:14:11;;;;;;;;;;;;;;;29.66;40.34;100877.63;5100317;28;716;-51
2021/08/09 07:16:37;;;;;;;;;;;;;;;29.31;39.68;100868.34;5099880;28;803;-47
2021/08/09 07:19:02;;;;;;;;;;;;;;;29.51;39.89;100875.00;5099194;28;866;-48
2021/08/09 07:21:27;;;;;;;;;;;;;;;29.39;39.57;100883.66;5099315;28;1006;-41
2021/08/09 07:23:53;;;;;;;;;;;;;;;29.09;38.52;100878.38;5099835;28;806;-50
2021/08/09 07:26:18;;;;;;;;;;;;;;;29.17;38.23;100883.66;5079344;28;1266;-40
2021/08/09 07:28:43;;;;;;;;;;;;;;;29.45;39.22;100884.72;5079195;28;752;-44
2021/08/09 07:31:08;;;;;;;;;;;;;;;29.60;39.15;100881.13;5078854;28;1906;-37
2021/08/09 07:33:34;;;;;;;;;;;;;;;29.76;39.36;100877.28;5079018;28;764;-44
2021/08/09 07:36:00;;;;;;;;;;;;;;;29.63;39.60;100886.97;5092143;28;955;-40
2021/08/09 07:38:26;;;;;;;;;;;;;;;29.86;39.18;100879.63;5099242;28;987;-55
2021/08/09 07:40:51;;;;;;;;;;;;;;;29.88;39.32;100877.56;5099310;28;810;-42
2021/08/09 07:43:17;;;;;;;;;;;;;;;29.89;39.38;100873.81;5098896;28;810;-38
2021/08/09 07:45:42;;;;;;;;;;;;;;;29.81;39.63;100880.25;5099232;28;812;-40
2021/08/09 07:48:07;;;;;;;;;;;;;;;29.78;39.64;100881.47;5099054;28;803;-41
2021/08/09 07:50:32;;;;;;;;;;;;;;;29.84;39.65;100873.56;5098497;28;1969;-50
2021/08/09 07:52:58;;;;;;;;;;;;;;;29.90;39.58;100881.75;5099302;28;803;-47
2021/08/09 07:55:23;;;;;;;;;;;;;;;29.89;39.49;100882.81;5098293;28;1333;-38
2021/08/09 07:57:48;;;;;;;;;;;;;;;29.92;39.64;100887.81;5080177;28;800;-47
2021/08/09 08:00:16;;;;;;;;;;;;;;;29.97;39.54;100883.66;5099029;28;800;-44
2021/08/09 08:02:42;;;;;;;;;;;;;;;30.01;39.46;100876.81;5098749;28;736;-36
2021/08/09 08:05:07;;;;;;;;;;;;;;;29.95;39.54;100878.44;5098266;28;1029;-45
2021/08/09 08:07:33;;;;;;;;;;;;;;;30.05;39.24;100878.91;5098734;28;748;-37
2021/08/09 08:09:58;;;;;;;;;;;;;;;29.97;39.29;100881.78;5098116;28;1992;-43
2021/08/09 08:12:23;;;;;;;;;;;;;;;29.98;39.00;100882.66;5098566;28;798;-46
2021/08/09 08:14:49;;;;;;;;;;;;;;;29.88;39.17;100880.28;5098887;28;790;-45
2021/08/09 08:17:14;;;;;;;;;;;;;;;29.80;39.79;100883.97;5098766;28;752;-48
2021/08/09 08:19:39;;;;;;;;;;;;;;;29.87;39.43;100884.03;5098038;28;927;-37
2021/08/09 08:22:06;;;;;;;;;;;;;;;29.86;39.68;100885.06;5098278;28;799;-37
2021/08/09 08:24:31;;;;;;;;;;;;;;;29.84;39.56;100884.41;5093581;28;1127;-42
2021/08/09 08:26:57;;;;;;;;;;;;;;;29.82;39.62;100885.47;5078001;28;843;-37
2021/08/09 08:29:22;;;;;;;;;;;;;;;29.73;39.43;100883.94;5078245;28;820;-45
2021/08/09 08:31:47;;;;;;;;;;;;;;;29.66;37.84;100870.31;5077976;28;2284;-48
2021/08/09 08:34:13;;;;;;;;;;;;;;;25.65;47.72;100866.88;5078253;28;896;-46
2021/08/09 08:36:38;;;;;;;;;;;;;;;21.80;52.68;100862.44;5095996;28;947;-36
2021/08/09 08:39:03;;;;;;;;;;;;;;;20.46;53.66;100859.16;5098316;28;783;-48
2021/08/09 08:41:29;;;;;;;;;;;;;;;20.98;56.46;100862.69;5097949;28;719;-49
2021/08/09 08:43:54;;;;;;;;;;;;;;;21.40;55.34;100864.28;5098236;28;728;-44
2021/08/09 08:46:19;;;;;;;;;;;;;;;21.45;55.46;100866.53;5098020;28;874;-36
2021/08/09 08:48:44;;;;;;;;;;;;;;;21.34;55.65;100868.34;5097653;28;728;-36
2021/08/09 08:51:10;;;;;;;;;;;;;;;21.39;55.52;100870.59;5079168;28;1977;-37
2021/08/09 08:53:35;;;;;;;;;;;;;;;21.28;55.97;100869.78;5097957;28;858;-37
2021/08/09 08:56:03;;;;;;;;;;;;;;;21.14;56.42;100871.03;5097681;28;1258;-44
2021/08/09 08:58:28;;;;;;;;;;;;;;;21.05;56.54;100866.53;5096901;28;851;-50
2021/08/09 09:00:54;;;;;;;;;;;;;;;21.03;56.76;100860.47;5097634;28;810;-48
2021/08/09 09:03:20;;;;;;;;;;;;;;;21.12;56.83;100861.47;5097672;28;851;-40
2021/08/09 09:05:58;;;;;;;;;;;;;;;21.00;56.94;100864.25;5097126;28;963;-40
2021/08/09 09:08:38;;;;;;;;;;;;;;;20.94;56.98;100866.66;5097605;28;760;-44
2021/08/09 09:11:07;;;;;;;;;;;;;;;20.87;57.06;100861.81;5097168;28;1975;-42
2021/08/09 09:13:32;;;;;;;;;;;;;;;20.88;57.04;100863.50;5097747;28;854;-43
2021/08/09 09:15:58;;;;;;;;;;;;;;;20.80;57.31;100860.69;5098086;28;831;-45
2021/08/09 09:18:23;;;;;;;;;;;;;;;20.79;57.06;100867.00;5078855;28;626;-35
2021/08/09 09:20:48;;;;;;;;;;;;;;;20.69;57.30;100861.63;5097065;28;958;-36
2021/08/09 09:23:21;;;;;;;;;;;;;;;20.76;58.33;100867.28;5097644;28;780;-38
2021/08/09 09:25:47;;;;;;;;;;;;;;;20.94;58.88;100872.81;5079211;28;1276;-39
2021/08/09 09:28:33;;;;;;;;;;;;;;;20.99;59.37;100865.22;5097056;28;795;-38
2021/08/09 09:31:03;;;;;;;;;;;;;;;20.99;59.25;100865.22;5097409;28;1914;-38
2021/08/09 09:33:29;;;;;;;;;;;;;;;20.85;59.62;100868.28;5096938;28;775;-39
2021/08/09 09:35:55;;;;;;;;;;;;;;;20.91;59.71;100867.72;5078941;28;1014;-38
2021/08/09 09:38:20;;;;;;;;;;;;;;;20.79;59.57;100872.34;5097214;28;831;-39
2021/08/09 09:40:45;;;;;;;;;;;;;;;20.76;59.18;100862.78;5078114;28;1473;-38
2021/08/09 09:43:17;;;;;;;;;;;;;;;20.72;58.95;100860.53;5097492;28;807;-39
2021/08/09 09:45:53;;;;;;;;;;;;;;;20.65;58.90;100866.41;5097279;28;740;-38
2021/08/09 09:48:29;;;;;;;;;;;;;;;20.62;58.82;100863.16;5096262;28;824;-38
2021/08/09 09:50:55;;;;;;;;;;;;;;;20.55;58.51;100865.53;5096436;28;1977;-38
2021/08/09 09:53:21;;;;;;;;;;;;;;;20.65;58.40;100868.25;5078493;28;1311;-38
2021/08/09 09:55:48;;;;;;;;;;;;;;;20.62;58.21;100866.66;5096708;28;1319;-38
2021/08/09 09:58:14;;;;;;;;;;;;;;;20.50;58.42;100859.75;5096846;28;756;-39
2021/08/09 10:00:40;;;;;;;;;;;;;;;20.48;58.38;100859.03;5096847;28;790;-38
2021/08/09 10:03:05;;;;;;;;;;;;;;;20.47;58.38;100860.03;5096276;28;878;-38
2021/08/09 10:05:30;;;;;;;;;;;;;;;20.49;58.16;100858.03;5096153;28;903;-38
2021/08/09 10:07:56;;;;;;;;;;;;;;;20.45;58.06;100856.63;5078557;28;859;-38
2021/08/09 10:10:24;;;;;;;;;;;;;;;20.47;58.00;100854.69;5077369;28;1917;-38
2021/08/09 10:12:49;;;;;;;;;;;;;;;20.40;58.32;100849.03;5096737;28;822;-38
2021/08/09 10:15:16;;;;;;;;;;;;;;;20.33;58.30;100862.09;5078944;28;826;-39
2021/08/09 10:17:41;;;;;;;;;;;;;;;20.38;58.08;100848.31;5096086;28;890;-38
2021/08/09 10:20:07;;;;;;;;;;;;;;;20.30;58.40;100846.31;5077952;28;986;-39
2021/08/09 10:22:33;;;;;;;;;;;;;;;20.23;58.33;100848.69;5078465;28;761;-38
2021/08/09 10:24:59;;;;;;;;;;;;;;;20.33;58.01;100845.19;5077533;28;1100;-38
2021/08/09 10:27:43;;;;;;;;;;;;;;;20.31;58.22;100854.22;5096487;28;848;-38
2021/08/09 10:30:09;;;;;;;;;;;;;;;20.25;58.22;100845.88;5096546;28;1910;-40
2021/08/09 10:32:41;;;;;;;;;;;;;;;20.25;58.18;100835.19;5096073;28;791;-39
2021/08/09 10:35:25;;;;;;;;;;;;;;;20.25;58.43;100846.72;5096111;28;1014;-39
2021/08/09 10:38:09;;;;;;;;;;;;;;;20.28;58.41;100853.63;5077902;28;1551;-38
2021/08/09 10:40:34;;;;;;;;;;;;;;;20.14;59.14;100841.47;5096255;28;818;-39
2021/08/09 10:42:59;;;;;;;;;;;;;;;20.25;58.94;100845.88;5096274;28;819;-38
2021/08/09 10:45:39;;;;;;;;;;;;;;;20.29;58.84;100842.81;5086053;28;1130;-47
2021/08/09 10:48:05;;;;;;;;;;;;;;;20.23;59.26;100847.84;5076013;28;767;-47
2021/08/09 10:50:43;;;;;;;;;;;;;;;20.27;59.45;100841.25;5085202;28;1946;-38
2021/08/09 10:53:28;;;;;;;;;;;;;;;20.23;59.51;100848.69;5096233;28;842;-38
2021/08/09 10:55:56;;;;;;;;;;;;;;;20.09;59.81;100838.34;5095501;28;1523;-36
2021/08/09 10:58:41;;;;;;;;;;;;;;;20.30;59.34;100839.13;5077002;28;868;-41
2021/08/09 11:01:06;;;;;;;;;;;;;;;21.90;55.49;100835.63;5095985;28;760;-42
2021/08/09 11:03:31;;;;;;;;;;;;;;;24.39;48.03;100836.22;5096286;28;788;-46
2021/08/09 11:05:57;;;;;;;;;;;;;;;25.34;45.89;100841.44;5095442;28;970;-47
2021/08/09 11:08:25;;;;;;;;;;;;;;;25.90;44.43;100847.97;5095846;28;767;-39
2021/08/09 11:10:50;;;;;;;;;;;;;;;26.29;43.59;100840.94;5095751;28;1921;-40
2021/08/09 11:13:16;;;;;;;;;;;;;;;26.58;42.63;100841.31;5095974;28;807;-42
2021/08/09 11:15:53;;;;;;;;;;;;;;;26.81;42.06;100843.22;5095853;28;1035;-42
2021/08/09 11:18:18;;;;;;;;;;;;;;;27.02;42.03;100845.31;5096004;28;774;-38
2021/08/09 11:20:44;;;;;;;;;;;;;;;27.28;41.35;100849.47;5095230;28;962;-45
2021/08/09 11:23:11;;;;;;;;;;;;;;;27.40;41.30;100852.59;5098694;28;771;-39
2021/08/09 11:25:40;;;;;;;;;;;;;;;27.46;41.27;100853.75;5099793;28;1189;-41
2021/08/09 11:28:05;;;;;;;;;;;;;;;27.63;40.53;100847.16;5099379;28;808;-42
2021/08/09 11:30:39;;;;;;;;;;;;;;;27.77;40.53;100849.22;5099359;28;1968;-41
2021/08/09 11:33:05;;;;;;;;;;;;;;;27.90;40.79;100845.88;5099612;28;503;-46
2021/08/09 11:35:30;;;;;;;;;;;;;;;28.04;40.16;100841.50;5098865;28;965;-43
2021/08/09 11:37:56;;;;;;;;;;;;;;;28.03;40.39;100842.56;5099562;28;815;-43
2021/08/09 11:40:34;;;;;;;;;;;;;;;28.10;40.03;100843.47;5098902;28;823;-41
2021/08/09 11:42:59;;;;;;;;;;;;;;;28.19;39.67;100844.22;5099443;28;784;-43
2021/08/09 11:45:25;;;;;;;;;;;;;;;28.26;40.30;100847.81;5099285;28;779;-37
2021/08/09 11:47:50;;;;;;;;;;;;;;;28.46;39.91;100841.88;5080588;28;1243;-40
2021/08/09 11:50:15;;;;;;;;;;;;;;;28.55;39.64;100838.00;5098872;28;1972;-40
2021/08/09 11:52:40;;;;;;;;;;;;;;;28.65;39.45;100823.31;5080960;28;819;-38
2021/08/09 11:55:06;;;;;;;;;;;;;;;28.62;39.11;100824.56;5099053;28;1280;-40
2021/08/09 11:57:39;;;;;;;;;;;;;;;28.77;39.77;100827.22;5099282;28;795;-41
2021/08/09 12:00:05;;;;;;;;;;;;;;;28.92;39.25;100835.28;5098858;28;776;-43
2021/08/09 12:02:30;;;;;;;;;;;;;;;29.02;39.25;100834.13;5098377;28;827;-44
2021/08/09 12:04:56;;;;;;;;;;;;;;;28.90;39.37;100826.50;5098952;28;1022;-46
2021/08/09 12:07:21;;;;;;;;;;;;;;;29.02;39.10;100831.44;5098806;28;831;-44
2021/08/09 12:09:47;;;;;;;;;;;;;;;29.08;39.09;100820.66;5098587;28;819;-45
2021/08/09 12:12:16;;;;;;;;;;;;;;;29.10;39.19;100817.75;5098870;28;1974;-42
2021/08/09 12:14:42;;;;;;;;;;;;;;;29.11;39.30;100813.19;5098259;28;522;-40
2021/08/09 12:17:17;;;;;;;;;;;;;;;29.09;38.71;100811.47;5098746;28;767;-41
2021/08/09 12:19:42;;;;;;;;;;;;;;;29.13;38.76;100817.34;5098235;28;930;-39
2021/08/09 12:22:11;;;;;;;;;;;;;;;29.17;38.94;100813.25;5098590;28;732;-42
2021/08/09 12:24:36;;;;;;;;;;;;;;;29.31;39.36;100806.03;5092892;28;1265;-39
2021/08/09 12:27:13;;;;;;;;;;;;;;;29.32;39.01;100812.31;5078211;28;791;-41
2021/08/09 12:29:39;;;;;;;;;;;;;;;29.24;38.71;100815.16;5078158;28;788;-41
2021/08/09 12:32:13;;;;;;;;;;;;;;;29.26;38.48;100815.81;5077984;28;1901;-37
2021/08/09 12:34:41;;;;;;;;;;;;;;;29.25;38.04;100814.97;5079214;28;1006;-35
2021/08/09 12:37:13;;;;;;;;;;;;;;;29.24;38.30;100816.00;5080718;28;775;-44
2021/08/09 12:39:38;;;;;;;;;;;;;;;29.29;38.63;100810.84;5098349;28;780;-39
2021/08/09 12:42:16;;;;;;;;;;;;;;;29.43;38.74;100811.75;5097945;28;764;-49
2021/08/09 12:44:41;;;;;;;;;;;;;;;29.50;39.19;100816.38;5098123;28;744;-38
2021/08/09 12:47:06;;;;;;;;;;;;;;;29.58;38.70;100819.78;5095895;28;1151;-38
2021/08/09 12:49:31;;;;;;;;;;;;;;;29.53;38.35;100816.00;5097555;28;955;-39
2021/08/09 12:51:57;;;;;;;;;;;;;;;29.46;38.63;100813.25;5097501;28;1905;-34